createdAt,value
2023-03-17T00:01:03.248Z,1.08
2023-03-17T00:04:05.926Z,1.10
2023-03-17T00:07:10.446Z,1.07
2023-03-17T00:10:18.618Z,1.04
2023-03-17T00:13:21.102Z,0.97
2023-03-17T00:16:27.060Z,0.94
2023-03-17T00:19:32.319Z,0.87
2023-03-17T00:22:34.994Z,0.81
2023-03-17T00:25:37.185Z,0.88
2023-03-17T00:28:39.742Z,0.90
2023-03-17T00:31:45.170Z,0.81
2023-03-17T00:34:47.812Z,0.77
2023-03-17T00:37:53.657Z,0.75
2023-03-17T00:40:56.232Z,0.63
2023-03-17T00:43:58.562Z,0.61
2023-03-17T00:47:01.941Z,0.65
2023-03-17T00:50:05.562Z,0.59
2023-03-17T00:53:14.129Z,0.63
2023-03-17T00:56:19.111Z,0.54
2023-03-17T00:59:35.475Z,0.43
2023-03-17T01:02:37.671Z,0.42
2023-03-17T01:05:40.883Z,0.45
2023-03-17T01:08:44.799Z,0.33
2023-03-17T01:11:48.521Z,0.29
2023-03-17T01:14:50.723Z,0.28
2023-03-17T01:17:53.198Z,0.38
2023-03-17T01:20:55.418Z,0.18
2023-03-17T01:23:58.034Z,0.21
2023-03-17T01:27:00.452Z,0.11
2023-03-17T01:30:05.487Z,0.05
2023-03-17T01:33:09.466Z,0.01
2023-03-17T01:36:12.203Z,0.03
2023-03-17T01:39:15.234Z,-0.02
2023-03-17T01:42:17.673Z,-0.06
2023-03-17T01:45:58.803Z,-0.02
2023-03-17T01:49:29.317Z,-0.10
2023-03-17T01:52:34.411Z,-0.18
2023-03-17T01:55:38.299Z,-0.11
2023-03-17T01:58:41.930Z,-0.16
2023-03-17T02:01:49.492Z,-0.16
2023-03-17T02:04:52.784Z,-0.12
2023-03-17T02:07:56.582Z,-0.23
2023-03-17T02:10:59.342Z,-0.22
2023-03-17T02:14:01.857Z,-0.30
2023-03-17T02:17:04.565Z,-0.36
2023-03-17T02:20:30.223Z,-0.34
2023-03-17T02:23:32.810Z,-0.43
2023-03-17T02:26:36.671Z,-0.46
2023-03-17T02:29:39.667Z,-0.39
2023-03-17T02:32:43.511Z,-0.43
2023-03-17T02:35:46.864Z,-0.45
2023-03-17T02:38:52.743Z,-0.43
2023-03-17T02:41:55.828Z,-0.44
2023-03-17T02:44:58.021Z,-0.53
2023-03-17T02:48:01.013Z,-0.53
2023-03-17T02:51:03.890Z,-0.52
2023-03-17T02:54:06.524Z,-0.62
2023-03-17T02:57:08.937Z,-0.61
2023-03-17T03:00:11.928Z,-0.63
2023-03-17T03:03:14.257Z,-0.60
2023-03-17T03:06:16.885Z,-0.60
2023-03-17T03:09:20.008Z,-0.71
2023-03-17T03:12:22.526Z,-0.74
2023-03-17T03:15:24.716Z,-0.79
2023-03-17T03:18:27.256Z,-0.84
2023-03-17T03:21:29.599Z,-0.77
2023-03-17T03:24:33.196Z,-0.78
2023-03-17T03:27:36.042Z,-0.90
2023-03-17T03:30:38.832Z,-0.85
2023-03-17T03:33:42.218Z,-0.97
2023-03-17T03:36:44.593Z,-0.87
2023-03-17T03:39:47.704Z,-0.91
2023-03-17T03:42:50.379Z,-0.77
2023-03-17T03:45:54.516Z,-0.85
2023-03-17T03:48:57.107Z,-0.89
2023-03-17T03:51:59.273Z,-0.99
2023-03-17T03:55:01.744Z,-0.98
2023-03-17T03:58:04.050Z,-1.01
2023-03-17T04:01:09.426Z,-0.97
2023-03-17T04:04:12.038Z,-1.01
2023-03-17T04:07:14.332Z,-1.11
2023-03-17T04:10:17.447Z,-1.20
2023-03-17T04:13:19.640Z,-1.13
2023-03-17T04:16:22.167Z,-1.05
2023-03-17T04:19:24.667Z,-1.03
2023-03-17T04:22:27.529Z,-1.07
2023-03-17T04:25:29.968Z,-1.05
2023-03-17T04:28:32.446Z,-1.07
2023-03-17T04:31:36.105Z,-0.96
2023-03-17T04:34:38.720Z,-0.92
2023-03-17T04:37:41.147Z,-1.01
2023-03-17T04:40:43.732Z,-1.00
2023-03-17T04:43:46.249Z,-0.97
2023-03-17T04:46:49.195Z,-0.99
2023-03-17T04:49:51.350Z,-0.95
2023-03-17T04:52:53.833Z,-0.95
2023-03-17T04:55:56.643Z,-0.94
2023-03-17T04:58:59.158Z,-0.91
2023-03-17T05:02:02.368Z,-0.89
2023-03-17T05:05:05.725Z,-0.85
2023-03-17T05:08:07.962Z,-0.77
2023-03-17T05:11:12.427Z,-0.71
2023-03-17T05:14:15.688Z,-0.66
2023-03-17T05:17:18.230Z,-0.54
2023-03-17T05:20:20.472Z,-0.37
2023-03-17T05:23:23.392Z,-0.21
2023-03-17T05:26:26.012Z,-0.05
2023-03-17T05:29:28.686Z,0.08
2023-03-17T05:32:32.141Z,0.26
2023-03-17T05:35:34.751Z,0.42
2023-03-17T05:38:37.266Z,0.88
2023-03-17T05:41:39.744Z,2.41
2023-03-17T05:44:41.962Z,3.66
2023-03-17T05:47:45.757Z,5.02
2023-03-17T05:50:48.068Z,6.77
2023-03-17T05:53:50.566Z,8.81
2023-03-17T05:56:52.739Z,11.34
2023-03-17T05:59:55.343Z,13.47
2023-03-17T06:02:58.577Z,14.73
2023-03-17T06:06:01.024Z,17.17
2023-03-17T06:09:03.184Z,19.30
2023-03-17T06:12:06.841Z,20.55
2023-03-17T06:15:09.772Z,21.54
2023-03-17T06:18:12.302Z,21.63
2023-03-17T06:21:14.620Z,22.35
2023-03-17T06:24:17.110Z,22.70
2023-03-17T06:27:19.758Z,21.73
2023-03-17T06:30:22.481Z,19.84
2023-03-17T06:33:26.049Z,21.52
2023-03-17T06:36:28.876Z,21.68
2023-03-17T06:39:31.113Z,21.86
2023-03-17T06:42:33.616Z,21.28
2023-03-17T06:45:36.028Z,19.41
2023-03-17T06:48:38.628Z,18.32
2023-03-17T06:51:41.032Z,16.80
2023-03-17T06:54:44.552Z,16.75
2023-03-17T06:57:48.312Z,17.32
2023-03-17T07:00:54.149Z,18.21
2023-03-17T07:03:56.636Z,19.07
2023-03-17T07:07:00.038Z,19.65
2023-03-17T07:10:04.291Z,19.41
2023-03-17T07:13:09.278Z,17.68
2023-03-17T07:16:16.899Z,17.11
2023-03-17T07:19:19.377Z,15.16
2023-03-17T07:22:22.003Z,14.19
2023-03-17T07:25:25.074Z,11.59
2023-03-17T07:28:27.438Z,10.16
2023-03-17T07:31:30.227Z,8.49
2023-03-17T07:34:32.667Z,7.88
2023-03-17T07:37:35.496Z,7.57
2023-03-17T07:40:38.929Z,7.31
2023-03-17T07:43:41.779Z,7.00
2023-03-17T07:46:44.184Z,6.83
2023-03-17T07:49:46.911Z,6.87
2023-03-17T07:52:49.242Z,6.93
2023-03-17T07:55:51.739Z,6.59
2023-03-17T07:58:54.188Z,6.09
2023-03-17T08:01:58.092Z,6.51
2023-03-17T08:05:02.049Z,6.39
2023-03-17T08:08:06.291Z,6.54
2023-03-17T08:11:09.351Z,6.31
2023-03-17T08:14:11.758Z,6.67
2023-03-17T08:17:14.270Z,6.65
2023-03-17T08:20:16.794Z,6.56
2023-03-17T08:23:20.592Z,6.56
2023-03-17T08:26:23.259Z,6.55
2023-03-17T08:29:26.059Z,6.74
2023-03-17T08:32:28.603Z,6.71
2023-03-17T08:35:31.765Z,6.79
2023-03-17T08:38:34.179Z,6.91
2023-03-17T08:41:38.443Z,6.88
2023-03-17T08:44:42.911Z,6.86
2023-03-17T08:47:47.700Z,6.89
2023-03-17T08:50:50.065Z,6.91
2023-03-17T08:53:53.438Z,7.14
2023-03-17T08:56:55.642Z,6.92
2023-03-17T08:59:58.120Z,7.21
2023-03-17T09:03:00.364Z,7.14
2023-03-17T09:06:05.918Z,7.01
2023-03-17T09:09:08.212Z,7.16
2023-03-17T09:12:11.145Z,7.22
2023-03-17T09:15:13.427Z,7.22
2023-03-17T09:18:16.550Z,7.36
2023-03-17T09:21:19.178Z,7.53
2023-03-17T09:24:21.715Z,7.71
2023-03-17T09:27:23.910Z,7.77
2023-03-17T09:30:27.031Z,7.75
2023-03-17T09:33:30.012Z,7.83
2023-03-17T09:36:33.277Z,7.79
2023-03-17T09:39:36.492Z,8.10
2023-03-17T09:43:08.100Z,8.32
2023-03-17T09:46:51.929Z,8.56
2023-03-17T09:49:58.977Z,8.18
2023-03-17T09:53:05.052Z,8.26
2023-03-17T09:56:16.300Z,8.66
2023-03-17T09:59:30.222Z,9.17
2023-03-17T10:02:35.443Z,10.35
2023-03-17T10:05:39.020Z,11.63
2023-03-17T10:08:51.170Z,11.63
2023-03-17T10:12:10.016Z,12.53
2023-03-17T10:15:20.509Z,13.00
2023-03-17T10:18:27.836Z,12.90
2023-03-17T10:21:33.708Z,13.18
2023-03-17T10:24:44.025Z,12.48
2023-03-17T10:28:16.672Z,13.49
2023-03-17T10:31:28.637Z,13.94
2023-03-17T10:34:36.673Z,13.53
2023-03-17T10:37:42.583Z,12.21
2023-03-17T10:40:54.645Z,12.68
2023-03-17T10:43:57.877Z,13.40
2023-03-17T10:47:00.830Z,13.01
2023-03-17T10:50:31.466Z,12.53
2023-03-17T10:53:41.862Z,12.25
2023-03-17T10:56:49.012Z,12.48
2023-03-17T10:59:54.218Z,12.47
2023-03-17T11:02:58.256Z,12.44
2023-03-17T11:06:10.222Z,11.77
2023-03-17T11:09:21.248Z,13.10
2023-03-17T11:12:37.871Z,13.32
2023-03-17T11:15:46.221Z,13.27
2023-03-17T11:18:51.557Z,13.31
2023-03-17T11:22:09.995Z,13.66
2023-03-17T11:25:19.987Z,12.72
2023-03-17T11:28:27.835Z,15.61
2023-03-17T11:31:34.105Z,14.98
2023-03-17T11:34:39.314Z,16.92
2023-03-17T11:38:07.272Z,18.13
2023-03-17T11:41:12.583Z,18.39
2023-03-17T11:44:37.123Z,18.51
2023-03-17T11:47:48.691Z,19.05
2023-03-17T11:50:58.554Z,19.40
2023-03-17T11:54:13.387Z,20.47
2023-03-17T11:57:45.060Z,21.32
2023-03-17T12:00:57.100Z,19.14
2023-03-17T12:04:05.847Z,21.28
2023-03-17T12:07:15.965Z,19.31
2023-03-17T12:10:31.010Z,18.02
2023-03-17T12:13:57.083Z,18.47
2023-03-17T12:17:06.770Z,17.14
2023-03-17T12:20:39.335Z,17.34
2023-03-17T12:23:50.594Z,17.83
2023-03-17T12:26:52.826Z,16.58
2023-03-17T12:30:00.867Z,17.52
2023-03-17T12:33:22.993Z,18.20
2023-03-17T12:36:26.208Z,18.62
2023-03-17T12:39:34.102Z,18.59
2023-03-17T12:42:43.439Z,17.26
2023-03-17T12:46:04.573Z,17.12
2023-03-17T12:50:05.808Z,15.24
2023-03-17T12:53:26.609Z,17.85
2023-03-17T12:56:32.504Z,18.17
2023-03-17T12:59:36.380Z,18.08
2023-03-17T13:02:39.607Z,17.69
2023-03-17T13:05:48.039Z,16.63
2023-03-17T13:08:52.451Z,16.92
2023-03-17T13:11:54.781Z,16.52
2023-03-17T13:14:58.508Z,16.52
2023-03-17T13:18:13.540Z,16.66
2023-03-17T13:21:18.769Z,14.32
2023-03-17T13:24:23.390Z,15.35
2023-03-17T13:27:31.781Z,15.16
2023-03-17T13:30:37.076Z,15.05
2023-03-17T13:33:52.129Z,14.97
2023-03-17T13:37:30.379Z,15.55
2023-03-17T13:40:57.400Z,15.73
2023-03-17T13:44:05.606Z,15.51
2023-03-17T13:47:23.627Z,16.01
2023-03-17T13:50:32.642Z,15.74
2023-03-17T13:53:42.836Z,15.17
2023-03-17T13:56:45.359Z,14.54
2023-03-17T13:59:50.469Z,14.74
2023-03-17T14:03:06.932Z,14.80
2023-03-17T14:06:12.925Z,14.81
2023-03-17T14:09:26.817Z,13.90
2023-03-17T14:12:35.257Z,12.95
2023-03-17T14:15:47.957Z,12.50
2023-03-17T14:18:57.387Z,12.01
2023-03-17T14:22:04.782Z,11.88
2023-03-17T14:25:16.320Z,11.49
2023-03-17T14:28:26.570Z,11.22
2023-03-17T14:31:29.679Z,11.52
2023-03-17T14:34:32.393Z,11.89
2023-03-17T14:37:37.667Z,11.93
2023-03-17T14:40:39.970Z,11.98
2023-03-17T14:43:44.164Z,11.93
2023-03-17T14:46:46.358Z,11.53
2023-03-17T14:49:50.688Z,11.70
2023-03-17T14:52:53.183Z,11.34
2023-03-17T14:55:56.297Z,11.39
2023-03-17T14:59:15.879Z,11.26
2023-03-17T15:02:24.138Z,11.17
2023-03-17T15:05:40.336Z,11.12
2023-03-17T15:08:46.580Z,11.32
2023-03-17T15:11:49.308Z,11.18
2023-03-17T15:14:54.345Z,11.22
2023-03-17T15:17:59.010Z,11.05
2023-03-17T15:21:01.491Z,11.15
2023-03-17T15:24:06.223Z,11.20
2023-03-17T15:27:17.312Z,11.00
2023-03-17T15:30:20.939Z,10.76
2023-03-17T15:33:29.727Z,10.71
2023-03-17T15:36:33.249Z,10.56
2023-03-17T15:39:35.850Z,10.47
2023-03-17T15:42:39.664Z,10.41
2023-03-17T15:45:43.838Z,10.24
2023-03-17T15:48:46.624Z,10.18
2023-03-17T15:51:49.089Z,10.02
2023-03-17T15:54:52.977Z,9.96
2023-03-17T15:57:56.355Z,9.82
2023-03-17T16:00:59.987Z,9.71
2023-03-17T16:04:02.841Z,9.58
2023-03-17T16:07:12.103Z,9.49
2023-03-17T16:10:20.497Z,9.37
2023-03-17T16:13:22.728Z,9.34
2023-03-17T16:16:36.521Z,9.21
2023-03-17T16:19:38.735Z,9.10
2023-03-17T16:22:43.128Z,9.06
2023-03-17T16:25:46.023Z,8.93
2023-03-17T16:28:49.510Z,8.91
2023-03-17T16:31:51.680Z,8.93
2023-03-17T16:34:54.138Z,8.81
2023-03-17T16:37:56.458Z,8.66
2023-03-17T16:41:01.772Z,8.54
2023-03-17T16:44:05.390Z,8.40
2023-03-17T16:47:10.701Z,8.32
2023-03-17T16:50:18.834Z,8.24
2023-03-17T16:53:21.461Z,8.16
2023-03-17T16:56:25.298Z,8.01
2023-03-17T16:59:31.307Z,7.94
2023-03-17T17:02:34.203Z,7.88
2023-03-17T17:05:36.780Z,7.84
2023-03-17T17:08:39.026Z,7.76
2023-03-17T17:11:41.732Z,7.66
2023-03-17T17:14:43.950Z,7.66
2023-03-17T17:17:48.878Z,7.58
2023-03-17T17:20:52.735Z,7.45
2023-03-17T17:23:55.669Z,7.42
2023-03-17T17:26:57.832Z,7.42
2023-03-17T17:30:00.349Z,7.63
2023-03-17T17:33:03.953Z,7.83
2023-03-17T17:36:12.736Z,7.74
2023-03-17T17:39:14.972Z,7.76
2023-03-17T17:42:17.557Z,7.83
2023-03-17T17:45:20.282Z,7.85
2023-03-17T17:48:24.789Z,7.83
2023-03-17T17:51:28.708Z,7.79
2023-03-17T17:54:31.417Z,7.80
2023-03-17T17:57:33.588Z,7.66
2023-03-17T18:00:36.310Z,7.62
2023-03-17T18:03:41.590Z,7.60
2023-03-17T18:06:44.271Z,7.53
2023-03-17T18:09:46.720Z,7.48
2023-03-17T18:12:48.930Z,7.40
2023-03-17T18:15:51.810Z,7.41
2023-03-17T18:18:54.003Z,7.32
2023-03-17T18:21:57.061Z,7.24
2023-03-17T18:24:59.176Z,7.16
2023-03-17T18:28:01.786Z,7.05
2023-03-17T18:31:11.024Z,7.02
2023-03-17T18:34:21.747Z,6.93
2023-03-17T18:37:23.996Z,6.86
2023-03-17T18:40:26.657Z,6.80
2023-03-17T18:43:28.898Z,6.75
2023-03-17T18:46:31.420Z,6.67
2023-03-17T18:49:33.907Z,6.58
2023-03-17T18:52:38.567Z,6.52
2023-03-17T18:55:41.407Z,6.49
2023-03-17T18:58:43.962Z,6.48
2023-03-17T19:01:46.236Z,6.50
2023-03-17T19:04:48.968Z,6.40
2023-03-17T19:07:51.854Z,6.42
2023-03-17T19:10:54.386Z,6.36
2023-03-17T19:13:58.276Z,6.22
2023-03-17T19:17:01.031Z,6.23
2023-03-17T19:20:03.847Z,6.05
2023-03-17T19:23:06.947Z,5.94
2023-03-17T19:26:10.253Z,5.90
2023-03-17T19:29:12.889Z,5.66
2023-03-17T19:32:16.175Z,5.70
2023-03-17T19:35:18.714Z,5.67
2023-03-17T19:38:21.264Z,5.82
2023-03-17T19:41:24.193Z,5.86
2023-03-17T19:44:27.005Z,5.75
2023-03-17T19:47:29.476Z,5.50
2023-03-17T19:50:32.848Z,5.43
2023-03-17T19:53:37.269Z,5.40
2023-03-17T19:56:39.788Z,5.12
2023-03-17T19:59:42.799Z,4.94
2023-03-17T20:02:45.682Z,4.86
2023-03-17T20:05:48.206Z,4.96
2023-03-17T20:08:50.906Z,4.83
2023-03-17T20:11:54.579Z,4.69
2023-03-17T20:14:56.722Z,4.57
2023-03-17T20:17:59.449Z,4.51
2023-03-17T20:21:05.573Z,4.47
2023-03-17T20:24:12.293Z,4.40
2023-03-17T20:27:17.333Z,4.30
2023-03-17T20:30:19.922Z,4.29
2023-03-17T20:33:22.137Z,4.25
2023-03-17T20:36:24.794Z,4.29
2023-03-17T20:39:27.153Z,4.66
2023-03-17T20:42:29.615Z,4.83
2023-03-17T20:45:31.811Z,4.63
2023-03-17T20:48:36.076Z,4.48
2023-03-17T20:51:39.349Z,4.31
2023-03-17T20:54:42.169Z,4.18
2023-03-17T20:57:49.267Z,4.06
2023-03-17T21:00:51.689Z,3.98
2023-03-17T21:03:54.197Z,3.93
2023-03-17T21:06:57.432Z,3.90
2023-03-17T21:10:02.022Z,3.91
2023-03-17T21:13:04.593Z,3.92
2023-03-17T21:16:07.497Z,3.91
2023-03-17T21:19:13.723Z,3.90
2023-03-17T21:22:16.114Z,3.96
2023-03-17T21:25:19.065Z,3.99
2023-03-17T21:28:22.680Z,3.98
2023-03-17T21:31:25.404Z,4.06
2023-03-17T21:34:30.001Z,4.41
2023-03-17T21:37:32.526Z,4.37
2023-03-17T21:40:35.222Z,4.15
2023-03-17T21:43:38.345Z,3.91
2023-03-17T21:46:40.559Z,3.84
2023-03-17T21:49:43.061Z,3.76
2023-03-17T21:52:45.719Z,3.75
2023-03-17T21:55:49.362Z,3.69
2023-03-17T21:58:51.849Z,3.64
2023-03-17T22:01:54.468Z,3.60
2023-03-17T22:04:57.064Z,3.53
2023-03-17T22:07:59.485Z,3.64
2023-03-17T22:11:10.617Z,3.57
2023-03-17T22:14:17.271Z,3.64
2023-03-17T22:17:19.729Z,3.66
2023-03-17T22:20:22.061Z,3.68
2023-03-17T22:23:26.213Z,3.61
2023-03-17T22:26:28.764Z,3.54
2023-03-17T22:29:32.302Z,3.49
2023-03-17T22:32:35.013Z,3.43
2023-03-17T22:35:38.268Z,3.48
2023-03-17T22:38:41.336Z,3.38
2023-03-17T22:41:44.266Z,3.35
2023-03-17T22:44:46.560Z,3.31
2023-03-17T22:47:49.796Z,3.38
2023-03-17T22:50:52.335Z,3.67
2023-03-17T22:53:55.443Z,3.57
2023-03-17T22:56:57.628Z,3.52
2023-03-17T23:00:00.199Z,3.53
2023-03-17T23:03:02.832Z,3.36
2023-03-17T23:06:06.982Z,3.45
2023-03-17T23:09:09.585Z,3.44
2023-03-17T23:12:12.615Z,3.50
2023-03-17T23:15:14.921Z,3.45
2023-03-17T23:18:17.517Z,3.52
2023-03-17T23:21:26.337Z,3.73
2023-03-17T23:24:28.868Z,3.84
2023-03-17T23:27:31.265Z,3.97
2023-03-17T23:30:35.761Z,3.79
2023-03-17T23:33:38.764Z,3.71
2023-03-17T23:36:41.379Z,3.54
2023-03-17T23:39:43.616Z,3.41
2023-03-17T23:42:48.763Z,3.29
2023-03-17T23:45:55.400Z,3.22
2023-03-17T23:48:58.344Z,3.16
2023-03-17T23:52:00.627Z,3.18
2023-03-17T23:55:05.847Z,3.15
2023-03-17T23:58:08.030Z,3.07
